Minnehaha, West Virginia
Current Conditions -  °F | °C
As of 12:50 AM on Sunday 26 Oct 2014 (Local Time) from KHSP Reporting Station
Overcast Overcast  
Wind Chill: 52°   Ceiling: 2100
Heat Index: 52°   Visibility: 10mi
Dew Point: 48°   Wind: 23mph
Humidity: 85%   Direction: 280°W
Pressure: 29.82"   Gusts: 33mph
Location:  38.2213°N, 80.0565°W
Report Text: KHSP 260450Z AUTO 28020G29KT 10SM SCT015 BKN021 OVC028 11/09 A2982 RMK AO2 T01110087 401640050
Loading
Personal Weather Stations






























Interactive Weather Map
Tropical Storm Tracking
New forecast layout! Learn more

10-Day Weather Forecast

Advertisements
Track Severe Weather on mobile